Time;durP1;ratioP1;P1;durP2;ratioP2;P2;SDS_P1;SDS_P2;PMS_P1;PMS_P2;Temp;Humidity;BMP_temperature;BMP_pressure;BME280_temperature;BME280_humidity;BME280_pressure;Samples;Min_cycle;Max_cycle;Signal;HPM_P1;HPM_P2
2021/05/31 00:00:23;;;;;;;3.47;2.47;;;12.60;1.00;;;;;;5086830;28;20052;-62
2021/05/31 00:03:11;;;;;;;2.95;2.50;;;12.50;1.00;;;;;;5083059;28;20073;-64
2021/05/31 00:05:59;;;;;;;6.93;2.42;;;12.50;1.00;;;;;;5083984;28;20430;-62
2021/05/31 00:08:47;;;;;;;5.10;2.45;;;12.40;1.00;;;;;;5081646;28;20055;-63
2021/05/31 00:11:36;;;;;;;3.33;2.40;;;12.40;1.00;;;;;;5084024;28;20040;-62
2021/05/31 00:14:25;;;;;;;7.13;2.50;;;12.40;1.00;;;;;;5090085;28;20067;-62
2021/05/31 00:17:14;;;;;;;4.18;2.60;;;12.30;1.00;;;;;;5081532;28;20063;-62
2021/05/31 00:20:02;;;;;;;3.95;2.78;;;12.20;1.00;;;;;;5084769;28;20521;-63
2021/05/31 00:22:50;;;;;;;3.42;2.33;;;12.20;1.00;;;;;;5082770;28;20545;-62
2021/05/31 00:25:38;;;;;;;4.63;2.80;;;12.10;1.00;;;;;;5090202;28;20130;-62
2021/05/31 00:28:33;;;;;;;3.58;2.50;;;12.10;1.00;;;;;;5071148;28;20040;-63
2021/05/31 00:31:22;;;;;;;4.07;2.75;;;12.00;1.00;;;;;;5088129;28;20078;-62
2021/05/31 00:34:10;;;;;;;3.90;2.60;;;11.90;1.00;;;;;;5074065;28;20518;-62
2021/05/31 00:36:58;;;;;;;3.83;2.35;;;11.90;1.00;;;;;;5084608;28;20666;-63
2021/05/31 00:39:46;;;;;;;3.25;2.30;;;11.90;1.00;;;;;;5089738;28;20617;-63
2021/05/31 00:42:34;;;;;;;4.78;2.90;;;11.90;1.00;;;;;;5087584;28;20050;-63
2021/05/31 00:45:22;;;;;;;3.95;2.45;;;11.90;1.00;;;;;;5090986;28;20573;-62
2021/05/31 00:48:10;;;;;;;4.93;2.72;;;11.90;1.00;;;;;;5087139;28;20092;-63
2021/05/31 00:51:00;;;;;;;6.03;2.67;;;11.70;1.00;;;;;;5093216;28;20055;-62
2021/05/31 00:53:48;;;;;;;5.95;2.38;;;11.70;1.00;;;;;;5089150;28;20044;-62
2021/05/31 00:56:37;;;;;;;4.07;2.78;;;11.60;1.00;;;;;;5087888;28;20144;-62
2021/05/31 00:59:25;;;;;;;2.22;2.00;;;11.60;1.00;;;;;;5088510;28;20048;-62
2021/05/31 01:02:13;;;;;;;4.47;2.78;;;11.60;1.00;;;;;;5062606;28;20798;-62
2021/05/31 01:05:02;;;;;;;4.18;2.40;;;11.60;1.00;;;;;;5088346;28;20147;-62
2021/05/31 01:07:54;;;;;;;9.52;2.75;;;11.60;1.00;;;;;;5088212;28;20101;-63
2021/05/31 01:10:48;;;;;;;3.38;2.38;;;11.60;1.00;;;;;;5090003;28;20198;-62
2021/05/31 01:13:42;;;;;;;4.10;2.10;;;11.40;1.00;;;;;;5089628;28;20129;-63
2021/05/31 01:16:37;;;;;;;3.33;2.47;;;11.30;1.00;;;;;;5079623;28;20281;-63
2021/05/31 01:19:54;;;;;;;3.53;2.22;;;11.30;1.00;;;;;;5090865;28;20047;-63
2021/05/31 01:22:45;;;;;;;3.70;2.55;;;11.20;1.00;;;;;;5083771;28;20161;-62
2021/05/31 01:25:36;;;;;;;7.25;2.50;;;11.10;1.00;;;;;;5089336;28;20059;-63
2021/05/31 01:28:52;;;;;;;4.43;2.05;;;11.00;1.00;;;;;;5070740;28;20224;-63
2021/05/31 01:31:47;;;;;;;3.67;2.20;;;11.00;1.00;;;;;;5069767;28;20047;-62
2021/05/31 01:34:35;;;;;;;3.03;2.33;;;10.80;1.00;;;;;;5070537;28;20116;-63
2021/05/31 01:37:26;;;;;;;5.90;2.33;;;10.70;1.00;;;;;;5087969;28;20052;-63
2021/05/31 01:40:15;;;;;;;4.75;2.72;;;10.60;1.00;;;;;;5087887;28;20685;-62
2021/05/31 01:43:04;;;;;;;5.55;2.65;;;10.80;1.00;;;;;;5082215;28;20055;-62
2021/05/31 01:45:54;;;;;;;4.05;2.42;;;10.60;1.00;;;;;;5089071;28;20533;-63
2021/05/31 01:48:43;;;;;;;4.55;2.58;;;10.50;1.00;;;;;;5088440;28;20414;-62
2021/05/31 01:51:32;;;;;;;3.92;2.42;;;10.50;1.00;;;;;;5085673;28;20052;-63
2021/05/31 01:54:21;;;;;;;3.08;2.47;;;10.40;1.00;;;;;;5087954;28;20092;-62
2021/05/31 01:57:10;;;;;;;3.13;2.33;;;10.40;1.00;;;;;;5086661;28;20048;-63
2021/05/31 01:59:58;;;;;;;3.95;2.20;;;10.30;1.00;;;;;;5083940;28;20161;-64
2021/05/31 02:03:08;;;;;;;9.30;2.55;;;10.30;1.00;;;;;;5087189;28;20048;-64
2021/05/31 02:05:57;;;;;;;6.45;2.80;;;10.30;1.00;;;;;;5091091;28;20040;-62
2021/05/31 02:08:46;;;;;;;3.33;2.45;;;10.20;1.00;;;;;;5088804;28;20048;-63
2021/05/31 02:11:40;;;;;;;3.95;2.60;;;10.20;1.00;;;;;;5083599;28;21412;-63
2021/05/31 02:14:37;;;;;;;3.95;2.45;;;10.20;1.00;;;;;;5092296;28;20052;-64
2021/05/31 02:17:32;;;;;;;4.60;2.70;;;10.10;1.00;;;;;;5089263;28;20423;-62
2021/05/31 02:20:22;;;;;;;;;;;10.10;1.00;;;;;;5091122;28;20407;-63
2021/05/31 02:23:11;;;;;;;3.88;2.63;;;10.00;1.00;;;;;;5083802;28;19924;-63
2021/05/31 02:26:00;;;;;;;4.95;2.38;;;9.90;1.00;;;;;;5086949;28;20068;-63
2021/05/31 02:28:49;;;;;;;3.08;2.78;;;10.00;1.00;;;;;;5084519;28;20055;-64
2021/05/31 02:31:37;;;;;;;4.90;2.42;;;10.00;1.00;;;;;;5085147;28;20048;-63
2021/05/31 02:34:27;;;;;;;4.10;2.85;;;10.00;1.00;;;;;;5091037;28;20051;-62
2021/05/31 02:37:17;;;;;;;5.25;2.65;;;10.20;1.00;;;;;;5087965;28;20040;-63
2021/05/31 02:40:06;;;;;;;4.38;2.53;;;10.20;1.00;;;;;;5087516;28;20127;-63
2021/05/31 02:42:57;;;;;;;4.07;2.33;;;10.10;1.00;;;;;;5083612;28;20062;-63
2021/05/31 02:45:45;;;;;;;3.88;2.63;;;10.10;1.00;;;;;;5073770;28;20039;-63
2021/05/31 02:48:33;;;;;;;3.80;2.40;;;9.90;1.00;;;;;;5085833;28;20086;-64
2021/05/31 02:51:21;;;;;;;10.23;2.72;;;9.90;1.00;;;;;;5068784;28;20048;-63
2021/05/31 02:54:12;;;;;;;5.30;2.65;;;9.80;1.00;;;;;;5086364;28;20135;-63
2021/05/31 02:57:00;;;;;;;5.38;2.80;;;9.80;1.00;;;;;;5085292;28;20048;-63
2021/05/31 02:59:48;;;;;;;4.22;2.83;;;9.70;1.00;;;;;;5073442;28;20043;-63
2021/05/31 03:02:36;;;;;;;4.72;2.55;;;9.70;1.00;;;;;;5082080;28;20052;-64
2021/05/31 03:05:27;;;;;;;4.57;2.50;;;9.60;1.00;;;;;;5085305;28;20534;-63
2021/05/31 03:08:15;;;;;;;3.75;2.60;;;9.60;1.00;;;;;;5086288;28;20174;-63
2021/05/31 03:11:04;;;;;;;5.28;2.67;;;9.60;1.00;;;;;;5069485;28;20054;-63
2021/05/31 03:13:52;;;;;;;7.47;3.30;;;9.60;1.00;;;;;;5087499;28;20140;-64
2021/05/31 03:16:41;;;;;;;4.28;2.70;;;9.50;1.00;;;;;;5085138;28;20069;-63
2021/05/31 03:19:29;;;;;;;4.80;3.10;;;9.50;1.00;;;;;;5084933;28;20594;-63
2021/05/31 03:22:17;;;;;;;4.65;2.55;;;9.40;1.00;;;;;;5081860;28;20051;-63
2021/05/31 03:25:07;;;;;;;3.15;2.42;;;9.30;1.00;;;;;;5087108;28;20531;-62
2021/05/31 03:27:58;;;;;;;4.95;2.80;;;9.30;1.00;;;;;;5058274;28;20119;-63
2021/05/31 03:30:46;;;;;;;4.13;2.90;;;9.30;1.00;;;;;;5071671;28;20050;-63
2021/05/31 03:33:34;;;;;;;6.72;2.80;;;9.30;1.00;;;;;;5071976;28;20036;-64
2021/05/31 03:36:21;;;;;;;6.78;2.90;;;9.30;1.00;;;;;;5084510;28;20048;-63
2021/05/31 03:39:09;;;;;;;6.28;3.30;;;9.40;1.00;;;;;;5086696;28;20059;-63
2021/05/31 03:41:57;;;;;;;4.53;3.20;;;9.50;1.00;;;;;;5078796;28;20089;-63
2021/05/31 03:44:47;;;;;;;8.02;2.92;;;10.10;1.00;;;;;;5086248;28;20123;-63
2021/05/31 03:47:35;;;;;;;5.68;3.65;;;10.20;1.00;;;;;;5085697;28;20509;-63
2021/05/31 03:50:23;;;;;;;5.82;3.45;;;10.70;1.00;;;;;;5089546;28;20143;-64
2021/05/31 03:53:11;;;;;;;7.25;3.35;;;11.70;1.00;;;;;;5082459;28;20524;-63
2021/05/31 03:55:59;;;;;;;7.32;3.15;;;12.30;1.00;;;;;;5085081;28;20044;-63
2021/05/31 03:58:48;;;;;;;5.00;3.00;;;12.80;1.00;;;;;;5085068;28;20077;-63
2021/05/31 04:01:38;;;;;;;5.85;2.53;;;12.90;1.00;;;;;;5080368;28;20228;-64
2021/05/31 04:04:26;;;;;;;2.65;2.22;;;13.40;1.00;;;;;;5087114;28;20100;-64
2021/05/31 04:11:33;;;;;;;3.28;2.13;;;14.00;1.00;;;;;;5084859;28;20051;-64
2021/05/31 04:13:40;;;;;;;4.28;2.80;;;13.70;1.00;;;;;;5083614;28;20054;-64
2021/05/31 04:16:28;;;;;;;6.18;2.55;;;14.30;1.00;;;;;;5086991;28;20106;-63
2021/05/31 04:19:19;;;;;;;4.78;2.33;;;14.70;1.00;;;;;;5093131;28;20039;-63
2021/05/31 04:22:07;;;;;;;2.97;2.40;;;15.50;1.00;;;;;;5082052;28;20521;-64
2021/05/31 04:24:55;;;;;;;5.40;2.92;;;15.20;1.00;;;;;;5085576;28;20056;-64
2021/05/31 04:27:43;;;;;;;5.88;3.10;;;15.90;1.00;;;;;;5085414;28;20584;-63
2021/05/31 04:30:32;;;;;;;3.15;2.20;;;15.60;1.00;;;;;;5085797;28;20128;-63
2021/05/31 04:33:20;;;;;;;5.78;2.80;;;16.10;1.00;;;;;;5083596;28;20040;-63
2021/05/31 04:36:09;;;;;;;3.45;2.63;;;16.10;1.00;;;;;;5086022;28;20504;-63
2021/05/31 04:38:57;;;;;;;3.05;2.35;;;16.70;1.00;;;;;;5081959;28;20052;-63
2021/05/31 04:41:45;;;;;;;3.42;2.47;;;16.50;1.00;;;;;;5083081;28;20537;-63
2021/05/31 04:44:33;;;;;;;3.10;2.30;;;15.70;1.00;;;;;;5088231;28;20123;-63
2021/05/31 04:47:21;;;;;;;4.35;2.45;;;16.30;1.00;;;;;;5085119;28;20127;-63
2021/05/31 04:50:11;;;;;;;3.63;2.90;;;16.80;1.00;;;;;;5085110;28;20130;-63
2021/05/31 04:53:00;;;;;;;5.20;2.50;;;17.80;1.00;;;;;;5082086;28;20075;-63
2021/05/31 04:55:48;;;;;;;4.95;2.45;;;18.10;1.00;;;;;;5084499;28;20040;-65
2021/05/31 04:58:36;;;;;;;3.33;2.38;;;17.20;1.00;;;;;;5086544;28;20044;-64
2021/05/31 05:01:24;;;;;;;4.10;2.40;;;17.70;1.00;;;;;;5080630;28;20076;-64
2021/05/31 05:04:12;;;;;;;3.28;2.60;;;17.50;1.00;;;;;;5086700;28;20709;-63
2021/05/31 05:06:59;;;;;;;3.17;2.60;;;17.40;1.00;;;;;;5072101;28;20048;-63
2021/05/31 05:09:49;;;;;;;5.43;2.40;;;17.40;1.00;;;;;;5086879;28;20047;-64
2021/05/31 05:12:37;;;;;;;2.75;2.30;;;17.50;1.00;;;;;;5084332;28;20040;-62
2021/05/31 05:15:25;;;;;;;4.03;2.75;;;17.90;1.00;;;;;;5091595;28;20658;-63
2021/05/31 05:18:13;;;;;;;4.95;2.70;;;18.80;1.00;;;;;;5089888;28;20131;-64
2021/05/31 05:21:01;;;;;;;3.65;2.70;;;17.30;1.00;;;;;;5086537;28;20205;-64
2021/05/31 05:23:49;;;;;;;4.80;2.50;;;17.60;1.00;;;;;;5086720;28;20036;-63
2021/05/31 05:26:39;;;;;;;4.15;2.35;;;17.80;1.00;;;;;;5076249;28;20060;-64
2021/05/31 05:29:27;;;;;;;3.80;2.60;;;17.60;1.00;;;;;;5088280;28;20043;-63
2021/05/31 05:32:14;;;;;;;3.85;2.38;;;17.60;1.00;;;;;;5083460;28;20047;-64
2021/05/31 05:35:09;;;;;;;4.88;3.08;;;17.50;1.00;;;;;;5090299;28;20292;-63
2021/05/31 05:44:44;;;;;;;3.42;2.40;;;17.90;1.00;;;;;;5087208;28;20426;-63
2021/05/31 05:47:42;;;;;;;4.72;2.45;;;18.30;1.00;;;;;;5089475;28;20087;-63
2021/05/31 05:50:31;;;;;;;4.75;3.10;;;17.90;1.00;;;;;;5090775;28;20147;-63
2021/05/31 05:53:19;;;;;;;5.20;3.00;;;18.60;1.00;;;;;;5055559;28;20047;-63
2021/05/31 05:56:09;;;;;;;6.03;2.63;;;18.50;1.00;;;;;;5087372;28;20464;-64
2021/05/31 05:58:57;;;;;;;7.10;2.80;;;18.50;1.00;;;;;;5086876;28;20075;-64
2021/05/31 06:01:46;;;;;;;5.05;2.80;;;16.90;1.00;;;;;;5083114;28;20056;-63
2021/05/31 06:04:39;;;;;;;5.60;2.90;;;17.20;1.00;;;;;;5092421;28;20039;-63
2021/05/31 06:07:27;;;;;;;7.38;3.10;;;17.70;1.00;;;;;;5086643;28;20185;-64
2021/05/31 06:10:16;;;;;;;3.83;2.88;;;16.40;1.00;;;;;;5088093;28;20044;-64
2021/05/31 06:13:04;;;;;;;6.03;2.75;;;15.80;1.00;;;;;;5082607;28;20048;-63
2021/05/31 06:15:52;;;;;;;6.50;2.90;;;15.20;1.00;;;;;;5072829;28;20201;-63
2021/05/31 06:18:41;;;;;;;5.00;3.10;;;14.60;1.00;;;;;;5088343;28;20127;-64
2021/05/31 06:21:29;;;;;;;9.70;3.15;;;14.80;1.00;;;;;;5086211;28;20631;-64
2021/05/31 06:24:17;;;;;;;4.38;3.30;;;15.60;1.00;;;;;;5087821;28;20121;-64
2021/05/31 06:27:06;;;;;;;3.67;2.70;;;16.40;1.00;;;;;;5091690;28;20082;-64
2021/05/31 06:29:54;;;;;;;4.78;3.00;;;16.60;1.00;;;;;;5086367;28;20452;-64
2021/05/31 06:32:43;;;;;;;8.38;3.22;;;17.40;1.00;;;;;;5082348;28;20066;-65
2021/05/31 06:35:33;;;;;;;7.55;3.17;;;17.20;1.00;;;;;;5087943;28;20176;-63
2021/05/31 06:38:20;;;;;;;6.25;2.88;;;17.30;1.00;;;;;;5070979;28;20117;-64
2021/05/31 06:41:10;;;;;;;4.95;3.08;;;17.20;1.00;;;;;;5088176;28;20046;-63
2021/05/31 06:43:58;;;;;;;5.05;2.85;;;17.40;1.00;;;;;;5087360;28;20170;-63
2021/05/31 06:46:47;;;;;;;4.10;2.88;;;17.20;1.00;;;;;;5071615;28;20040;-64
2021/05/31 06:49:35;;;;;;;5.00;3.03;;;16.00;1.00;;;;;;5072745;28;20056;-63
2021/05/31 06:52:24;;;;;;;4.85;2.90;;;16.00;1.00;;;;;;5082240;28;20039;-63
2021/05/31 06:55:13;;;;;;;4.57;2.80;;;15.90;1.00;;;;;;5087750;28;20044;-64
2021/05/31 06:58:02;;;;;;;5.28;3.05;;;16.00;1.00;;;;;;5086780;28;20582;-64
2021/05/31 07:00:50;;;;;;;5.22;2.92;;;16.00;1.00;;;;;;5085296;28;20619;-63
2021/05/31 07:03:39;;;;;;;9.00;3.30;;;16.10;1.00;;;;;;5083100;28;20048;-64
2021/05/31 07:06:28;;;;;;;4.32;3.13;;;16.10;1.00;;;;;;5074095;28;20096;-63
2021/05/31 07:09:17;;;;;;;9.00;3.40;;;16.10;1.00;;;;;;5085777;28;20067;-63
2021/05/31 07:12:06;;;;;;;10.73;3.67;;;15.90;1.00;;;;;;5082372;28;20467;-63
2021/05/31 07:14:56;;;;;;;6.25;3.00;;;16.10;1.00;;;;;;5086481;28;20066;-63
2021/05/31 07:17:43;;;;;;;4.10;2.80;;;16.30;1.00;;;;;;5086914;28;20052;-64
2021/05/31 07:20:32;;;;;;;5.00;2.50;;;16.30;1.00;;;;;;5092925;28;20055;-63
2021/05/31 07:23:20;;;;;;;4.05;2.30;;;16.20;1.00;;;;;;5084322;28;20044;-64
2021/05/31 07:26:10;;;;;;;5.28;2.20;;;16.40;1.00;;;;;;5085843;28;20059;-64
2021/05/31 07:28:58;;;;;;;5.00;2.05;;;16.50;1.00;;;;;;5084277;28;20040;-64
2021/05/31 07:31:45;;;;;;;3.40;1.95;;;16.90;1.00;;;;;;5080371;28;20048;-63
2021/05/31 07:34:34;;;;;;;2.38;1.70;;;16.80;1.00;;;;;;5093304;28;20057;-64
2021/05/31 07:37:22;;;;;;;3.80;2.17;;;16.90;1.00;;;;;;5086323;28;20048;-64
2021/05/31 07:40:12;;;;;;;2.92;1.70;;;16.70;1.00;;;;;;5084710;28;20082;-63
2021/05/31 07:43:01;;;;;;;3.15;1.80;;;16.60;1.00;;;;;;5080037;28;20539;-64
2021/05/31 07:45:51;;;;;;;2.95;2.00;;;16.70;1.00;;;;;;5084799;28;20079;-64
2021/05/31 07:48:39;;;;;;;1.98;1.60;;;16.70;1.00;;;;;;5086042;28;20044;-63
2021/05/31 07:51:28;;;;;;;2.45;1.80;;;16.60;1.00;;;;;;5083802;28;20076;-63
2021/05/31 07:54:16;;;;;;;2.58;1.88;;;16.60;1.00;;;;;;5071325;28;20394;-65
2021/05/31 07:57:04;;;;;;;2.15;2.00;;;16.70;1.00;;;;;;5086374;28;20128;-63
2021/05/31 07:59:54;;;;;;;2.47;1.95;;;16.60;1.00;;;;;;5086038;28;20066;-64
2021/05/31 08:02:43;;;;;;;3.00;2.00;;;16.60;1.00;;;;;;5070898;28;20445;-64
2021/05/31 08:05:31;;;;;;;4.90;1.90;;;16.80;1.00;;;;;;5083504;28;20048;-65
2021/05/31 08:08:19;;;;;;;3.67;2.13;;;17.00;1.00;;;;;;5083451;28;20048;-65
2021/05/31 08:11:08;;;;;;;3.47;1.58;;;16.90;1.00;;;;;;5083197;28;20275;-65
2021/05/31 08:13:56;;;;;;;2.17;1.95;;;17.00;1.00;;;;;;5083941;28;20123;-64
2021/05/31 08:16:48;;;;;;;2.08;1.73;;;16.90;1.00;;;;;;5085283;28;20145;-63
2021/05/31 08:19:36;;;;;;;2.50;2.00;;;16.80;1.00;;;;;;5085180;28;20060;-66
2021/05/31 08:22:25;;;;;;;2.38;2.00;;;16.80;1.00;;;;;;5078140;28;20104;-65
2021/05/31 08:25:13;;;;;;;3.63;2.00;;;16.60;1.00;;;;;;5087042;28;20130;-65
2021/05/31 08:28:03;;;;;;;3.30;2.28;;;17.00;1.00;;;;;;5085045;28;20136;-64
2021/05/31 08:30:51;;;;;;;2.70;1.98;;;17.10;1.00;;;;;;5083251;28;20060;-65
2021/05/31 08:33:40;;;;;;;3.33;2.00;;;16.60;1.00;;;;;;5085532;28;20078;-64
2021/05/31 08:36:28;;;;;;;3.22;2.20;;;16.50;1.00;;;;;;5085532;28;20054;-64
2021/05/31 08:39:16;;;;;;;4.32;2.17;;;16.80;1.00;;;;;;5086036;28;20079;-64
2021/05/31 08:42:04;;;;;;;3.30;2.10;;;16.90;1.00;;;;;;5081068;28;20073;-65
2021/05/31 08:44:53;;;;;;;3.55;1.92;;;16.90;1.00;;;;;;5087815;28;20036;-64
2021/05/31 08:47:43;;;;;;;3.13;2.05;;;17.00;1.00;;;;;;5071573;28;20051;-65
2021/05/31 08:50:34;;;;;;;2.92;2.20;;;17.00;1.00;;;;;;5091518;28;20161;-65
2021/05/31 08:53:22;;;;;;;3.58;2.13;;;17.20;1.00;;;;;;5090417;28;20039;-65
2021/05/31 08:56:10;;;;;;;2.75;2.10;;;17.20;1.00;;;;;;5091231;28;20051;-66
2021/05/31 08:58:58;;;;;;;4.60;2.22;;;17.20;1.00;;;;;;5090717;28;20047;-65
2021/05/31 09:01:46;;;;;;;3.33;2.10;;;17.30;1.00;;;;;;5086198;28;20512;-65
2021/05/31 09:04:45;;;;;;;2.72;1.98;;;17.90;1.00;;;;;;5088382;28;20549;-64
2021/05/31 09:07:34;;;;;;;7.40;2.38;;;18.10;1.00;;;;;;5088301;28;20223;-65
2021/05/31 09:10:23;;;;;;;2.53;2.03;;;17.90;1.00;;;;;;5074362;28;20115;-65
2021/05/31 09:13:13;;;;;;;4.05;2.47;;;17.80;1.00;;;;;;5084586;28;20581;-64
2021/05/31 09:16:09;;;;;;;4.13;2.40;;;17.80;1.00;;;;;;5090559;28;20066;-66
2021/05/31 09:19:03;;;;;;;2.60;2.17;;;17.50;1.00;;;;;;5087544;28;20052;-64
2021/05/31 09:21:51;;;;;;;4.85;2.33;;;17.70;1.00;;;;;;5083369;28;20180;-65
2021/05/31 09:24:40;;;;;;;5.50;2.00;;;17.70;1.00;;;;;;5090576;28;20129;-64
2021/05/31 09:27:30;;;;;;;3.28;2.30;;;17.90;1.00;;;;;;5087906;28;20327;-65
2021/05/31 09:30:18;;;;;;;4.60;2.28;;;18.00;1.00;;;;;;5088209;28;20056;-65
2021/05/31 09:33:12;;;;;;;3.97;2.10;;;18.20;1.00;;;;;;5079893;28;20048;-65
2021/05/31 09:36:07;;;;;;;3.08;1.88;;;18.00;1.00;;;;;;5087980;28;20044;-65
2021/05/31 09:38:55;;;;;;;3.33;2.15;;;17.70;1.00;;;;;;5088762;28;20131;-64
2021/05/31 09:41:44;;;;;;;4.30;1.90;;;17.90;1.00;;;;;;5091888;22;20122;-64
2021/05/31 09:44:32;;;;;;;3.13;2.20;;;17.90;1.00;;;;;;5046629;28;20600;-64
2021/05/31 09:47:28;;;;;;;5.13;2.00;;;17.80;1.00;;;;;;5046758;28;20057;-64
2021/05/31 09:50:24;;;;;;;3.28;2.00;;;17.90;1.00;;;;;;5045707;28;20648;-64
2021/05/31 09:53:13;;;;;;;3.83;2.28;;;17.60;1.00;;;;;;5045095;28;20589;-64
2021/05/31 09:56:01;;;;;;;3.17;2.00;;;17.90;1.00;;;;;;5048393;28;20276;-65
2021/05/31 09:58:55;;;;;;;4.47;2.10;;;18.20;1.00;;;;;;5047153;28;20102;-64
2021/05/31 10:01:43;;;;;;;4.38;2.00;;;18.10;1.00;;;;;;5043617;28;20328;-63
2021/05/31 10:04:42;;;;;;;5.63;1.90;;;18.50;1.00;;;;;;5046770;28;20041;-65
2021/05/31 10:07:41;;;;;;;3.38;2.00;;;18.80;1.00;;;;;;5048512;28;20454;-64
2021/05/31 10:10:30;;;;;;;3.58;2.03;;;19.00;1.00;;;;;;5044154;28;20067;-64
2021/05/31 10:13:19;;;;;;;3.70;2.35;;;18.70;1.00;;;;;;5043495;28;20406;-65
2021/05/31 10:16:10;;;;;;;3.55;2.22;;;18.10;1.00;;;;;;5046366;28;20090;-64
2021/05/31 10:18:58;;;;;;;6.22;2.10;;;18.70;1.00;;;;;;5048420;28;20134;-64
2021/05/31 10:21:47;;;;;;;2.50;2.30;;;18.40;1.00;;;;;;5043448;28;20108;-64
2021/05/31 10:24:36;;;;;;;3.30;1.92;;;18.50;1.00;;;;;;5044130;28;20049;-64
2021/05/31 10:27:28;;;;;;;3.10;2.10;;;18.60;1.00;;;;;;5039709;28;20045;-65
2021/05/31 10:30:17;;;;;;;3.28;2.17;;;18.90;1.00;;;;;;5040094;28;20446;-65
2021/05/31 10:33:13;;;;;;;2.75;2.10;;;18.90;1.00;;;;;;5039136;28;20155;-64
2021/05/31 10:36:10;;;;;;;4.00;2.30;;;19.40;1.00;;;;;;5043707;28;20055;-64
2021/05/31 10:39:02;;;;;;;4.03;1.88;;;19.10;1.00;;;;;;5043665;28;20069;-64
2021/05/31 10:41:50;;;;;;;3.72;2.47;;;18.80;1.00;;;;;;5038320;28;20442;-65
2021/05/31 10:44:42;;;;;;;1.90;1.70;;;18.70;1.00;;;;;;5038967;28;20210;-64
2021/05/31 10:47:30;;;;;;;3.33;2.00;;;19.20;1.00;;;;;;5044195;28;20037;-65
2021/05/31 10:50:19;;;;;;;4.13;2.00;;;18.90;1.00;;;;;;5041282;28;20137;-64
2021/05/31 10:53:09;;;;;;;3.13;2.00;;;19.30;1.00;;;;;;5038961;28;20057;-64
2021/05/31 10:55:59;;;;;;;2.58;2.00;;;19.30;1.00;;;;;;5037810;28;20106;-64
2021/05/31 10:58:50;;;;;;;5.05;2.67;;;18.90;1.00;;;;;;5040994;28;20058;-64
2021/05/31 11:01:39;;;;;;;2.28;1.77;;;19.10;1.00;;;;;;5042630;28;20147;-64
2021/05/31 11:04:29;;;;;;;2.67;2.10;;;18.90;1.00;;;;;;5036968;28;20060;-64
2021/05/31 11:07:27;;;;;;;3.17;2.17;;;19.00;1.00;;;;;;5039141;28;20048;-63
2021/05/31 11:10:17;;;;;;;3.08;2.00;;;19.00;1.00;;;;;;5036686;28;20049;-64
2021/05/31 11:13:14;;;;;;;3.75;2.00;;;19.50;1.00;;;;;;5036249;28;20508;-64
2021/05/31 11:16:05;;;;;;;4.00;2.00;;;19.30;1.00;;;;;;5040694;28;20516;-64
2021/05/31 11:18:57;;;;;;;4.38;2.05;;;19.10;1.00;;;;;;5041557;28;20139;-65
2021/05/31 11:21:45;;;;;;;2.47;1.67;;;19.40;1.00;;;;;;5035476;28;20254;-64
2021/05/31 11:24:34;;;;;;;3.38;2.30;;;19.40;1.00;;;;;;5036556;28;20122;-65
2021/05/31 11:27:23;;;;;;;3.70;2.55;;;19.50;1.00;;;;;;5041810;28;20480;-65
2021/05/31 11:30:16;;;;;;;2.22;1.90;;;19.70;1.00;;;;;;5038487;28;20052;-64
2021/05/31 11:33:05;;;;;;;5.65;2.15;;;18.90;1.00;;;;;;5038362;28;20076;-65
2021/05/31 11:35:53;;;;;;;2.60;2.13;;;19.90;1.00;;;;;;5040163;28;20041;-65
2021/05/31 11:38:41;;;;;;;2.72;2.17;;;19.80;1.00;;;;;;5039626;28;20535;-65
2021/05/31 11:41:34;;;;;;;3.38;2.10;;;20.10;1.00;;;;;;5036153;28;20498;-64
2021/05/31 11:44:27;;;;;;;2.20;2.00;;;19.90;1.00;;;;;;5037246;28;20044;-65
2021/05/31 11:47:20;;;;;;;3.35;2.28;;;19.40;1.00;;;;;;5036927;28;20562;-64
2021/05/31 11:50:17;;;;;;;2.92;2.10;;;19.60;1.00;;;;;;5035054;28;20057;-65
2021/05/31 11:53:05;;;;;;;4.53;2.00;;;19.70;1.00;;;;;;5033958;28;20374;-65
2021/05/31 11:55:53;;;;;;;3.45;2.10;;;19.80;1.00;;;;;;5038469;28;20130;-64
2021/05/31 11:58:42;;;;;;;3.83;1.98;;;20.20;1.00;;;;;;5039234;28;20135;-63
2021/05/31 12:01:31;;;;;;;3.55;2.00;;;20.20;1.00;;;;;;5035560;28;20059;-64
2021/05/31 12:04:19;;;;;;;3.80;2.15;;;20.30;1.00;;;;;;5037206;28;20085;-64
2021/05/31 12:07:08;;;;;;;9.15;2.47;;;20.40;1.00;;;;;;5039049;28;20072;-64
2021/05/31 12:09:56;;;;;;;2.70;2.28;;;20.30;1.00;;;;;;5039744;28;20049;-64
2021/05/31 12:12:47;;;;;;;2.15;1.95;;;19.00;1.00;;;;;;5033843;28;20126;-65
2021/05/31 12:15:38;;;;;;;7.50;2.60;;;20.30;1.00;;;;;;5034415;28;20045;-64
2021/05/31 12:18:31;;;;;;;4.28;2.10;;;20.70;1.00;;;;;;5041690;28;20059;-64
2021/05/31 12:21:19;;;;;;;2.40;2.00;;;20.80;1.00;;;;;;5039683;28;20164;-64
2021/05/31 12:24:08;;;;;;;4.00;2.58;;;20.40;1.00;;;;;;5041093;28;20099;-65
2021/05/31 12:26:58;;;;;;;4.25;2.10;;;20.20;1.00;;;;;;5038397;28;20126;-65
2021/05/31 12:29:47;;;;;;;4.18;2.13;;;20.20;1.00;;;;;;5039542;28;20052;-64
2021/05/31 12:32:37;;;;;;;5.47;2.20;;;20.40;1.00;;;;;;5026300;28;20057;-64
2021/05/31 12:35:25;;;;;;;3.85;2.00;;;20.80;1.00;;;;;;5043629;28;20041;-64
2021/05/31 12:38:13;;;;;;;2.40;1.77;;;21.00;1.00;;;;;;5043639;28;20134;-65
2021/05/31 12:41:01;;;;;;;3.45;2.10;;;20.80;1.00;;;;;;5039523;28;20080;-64
2021/05/31 12:43:49;;;;;;;2.85;2.03;;;20.50;1.00;;;;;;5040437;28;20059;-65
2021/05/31 12:46:39;;;;;;;2.15;1.95;;;20.50;1.00;;;;;;5028507;28;20045;-66
2021/05/31 12:49:28;;;;;;;3.42;2.20;;;20.70;1.00;;;;;;5055890;28;20045;-65
2021/05/31 12:52:24;;;;;;;2.33;2.10;;;20.70;1.00;;;;;;5039592;28;20802;-65
2021/05/31 12:55:14;;;;;;;4.10;1.95;;;20.80;1.00;;;;;;5045364;28;20116;-64
2021/05/31 12:58:10;;;;;;;4.30;2.50;;;20.90;1.00;;;;;;5043608;28;20392;-64
2021/05/31 13:00:59;;;;;;;2.85;2.33;;;20.80;1.00;;;;;;5041429;28;20052;-64
2021/05/31 13:03:47;;;;;;;2.38;2.15;;;20.80;1.00;;;;;;5039127;28;20053;-64
2021/05/31 13:06:37;;;;;;;3.60;2.05;;;21.10;1.00;;;;;;5042198;28;20142;-63
2021/05/31 13:09:26;;;;;;;2.63;2.17;;;20.80;1.00;;;;;;5041897;28;20049;-65
2021/05/31 13:12:13;;;;;;;3.28;2.15;;;20.70;1.00;;;;;;5037933;28;20122;-65
2021/05/31 13:15:04;;;;;;;2.70;2.45;;;21.00;1.00;;;;;;5046823;28;20087;-65
2021/05/31 13:17:53;;;;;;;4.30;2.00;;;21.00;1.00;;;;;;5039055;28;20076;-65
2021/05/31 13:20:42;;;;;;;3.38;2.25;;;21.10;1.00;;;;;;5040668;28;20056;-66
2021/05/31 13:23:33;;;;;;;3.50;2.22;;;21.20;1.00;;;;;;5040712;28;20185;-65
2021/05/31 13:26:24;;;;;;;2.55;2.15;;;21.30;1.00;;;;;;5041953;28;20069;-66
2021/05/31 13:29:13;;;;;;;2.30;2.10;;;20.80;1.00;;;;;;5042122;28;20204;-65
2021/05/31 13:32:04;;;;;;;3.65;2.10;;;20.60;1.00;;;;;;5038798;28;20757;-66
2021/05/31 13:35:00;;;;;;;3.03;2.45;;;21.20;1.00;;;;;;5043225;28;20396;-64
2021/05/31 13:37:51;;;;;;;4.93;2.40;;;21.10;1.00;;;;;;5043920;28;20052;-65
2021/05/31 13:40:44;;;;;;;4.45;2.30;;;21.10;1.00;;;;;;5044742;28;20067;-65
2021/05/31 13:43:35;;;;;;;3.72;2.33;;;20.90;1.00;;;;;;5041631;28;20055;-66
2021/05/31 13:46:23;;;;;;;2.53;2.00;;;21.10;1.00;;;;;;5040726;28;20394;-65
2021/05/31 13:49:11;;;;;;;4.07;2.20;;;21.50;1.00;;;;;;5040244;28;20045;-64
2021/05/31 13:52:00;;;;;;;3.40;2.22;;;21.60;1.00;;;;;;5041067;28;20417;-66
2021/05/31 13:54:47;;;;;;;3.45;2.38;;;21.70;1.00;;;;;;5038446;28;20526;-65
2021/05/31 13:57:37;;;;;;;2.65;2.13;;;21.90;1.00;;;;;;5038486;28;20061;-65
2021/05/31 14:00:28;;;;;;;3.10;1.95;;;21.60;1.00;;;;;;5040680;28;20061;-64
2021/05/31 14:03:16;;;;;;;3.00;2.05;;;21.30;1.00;;;;;;5037653;28;20182;-64
2021/05/31 14:06:04;;;;;;;2.00;1.80;;;21.40;1.00;;;;;;5040580;28;20080;-63
2021/05/31 14:09:09;;;;;;;4.18;2.40;;;21.40;1.00;;;;;;5041869;28;20052;-63
2021/05/31 14:11:57;;;;;;;2.33;2.13;;;22.00;1.00;;;;;;5036218;28;20053;-63
2021/05/31 14:14:46;;;;;;;2.83;2.17;;;22.20;1.00;;;;;;5043123;28;20044;-63
2021/05/31 14:17:34;;;;;;;2.75;2.30;;;21.80;1.00;;;;;;5039124;28;20160;-63
2021/05/31 14:20:24;;;;;;;2.28;2.08;;;22.10;1.00;;;;;;5042130;28;20048;-63
2021/05/31 14:23:12;;;;;;;3.03;2.40;;;21.90;1.00;;;;;;5034539;28;20048;-63
2021/05/31 14:26:01;;;;;;;3.92;1.77;;;21.70;1.00;;;;;;5039792;28;20049;-63
2021/05/31 14:28:48;;;;;;;2.40;1.88;;;21.60;1.00;;;;;;5040214;28;20057;-62
2021/05/31 14:31:38;;;;;;;7.55;2.38;;;21.70;1.00;;;;;;5039945;28;20068;-63
2021/05/31 14:34:27;;;;;;;2.20;1.80;;;22.30;1.00;;;;;;5036685;28;20055;-63
2021/05/31 14:37:14;;;;;;;2.20;2.00;;;21.70;1.00;;;;;;5038779;28;20131;-63
2021/05/31 14:40:03;;;;;;;2.28;1.98;;;22.00;1.00;;;;;;5038767;28;20056;-64
2021/05/31 14:42:53;;;;;;;2.75;1.67;;;21.60;1.00;;;;;;5036187;28;20398;-63
2021/05/31 14:45:42;;;;;;;2.10;1.88;;;21.70;1.00;;;;;;5040764;28;20049;-62
2021/05/31 14:48:31;;;;;;;4.05;1.80;;;21.60;1.00;;;;;;5039419;28;20052;-63
2021/05/31 14:51:19;;;;;;;2.53;2.03;;;21.50;1.00;;;;;;5038037;28;20162;-65
2021/05/31 14:54:07;;;;;;;3.35;2.13;;;21.40;1.00;;;;;;5036326;28;20053;-60
2021/05/31 14:56:57;;;;;;;4.97;2.15;;;21.80;1.00;;;;;;5042517;28;20068;-62
2021/05/31 14:59:44;;;;;;;3.45;2.13;;;21.60;1.00;;;;;;5040900;28;20133;-62
2021/05/31 15:02:32;;;;;;;4.72;2.50;;;21.70;1.00;;;;;;5036877;28;20411;-60
2021/05/31 15:05:23;;;;;;;2.10;1.90;;;21.80;1.00;;;;;;5038904;28;20420;-63